createdAt,value
2023-04-11T00:00:13.777Z,92.90
2023-04-11T00:01:16.730Z,92.60
2023-04-11T00:02:18.773Z,92.70
2023-04-11T00:03:22.443Z,92.50
2023-04-11T00:04:25.472Z,92.80
2023-04-11T00:05:29.063Z,92.70
2023-04-11T00:06:31.303Z,92.80
2023-04-11T00:07:34.300Z,93.20
2023-04-11T00:08:37.804Z,93.50
2023-04-11T00:09:40.882Z,94.00
2023-04-11T00:10:44.976Z,93.40
2023-04-11T00:11:48.984Z,93.30
2023-04-11T00:12:50.939Z,93.00
2023-04-11T00:13:57.682Z,92.90
2023-04-11T00:14:59.739Z,93.20
2023-04-11T00:16:03.400Z,92.90
2023-04-11T00:17:12.481Z,92.60
2023-04-11T00:18:15.517Z,92.60
2023-04-11T00:19:17.622Z,92.70
2023-04-11T00:20:20.767Z,92.90
2023-04-11T00:21:22.762Z,92.90
2023-04-11T00:22:27.630Z,93.20
2023-04-11T00:23:29.656Z,92.70
2023-04-11T00:24:34.128Z,92.60
2023-04-11T00:25:37.321Z,92.80
2023-04-11T00:26:40.404Z,92.90
2023-04-11T00:27:42.306Z,92.90
2023-04-11T00:28:45.217Z,93.10
2023-04-11T00:29:47.216Z,92.90
2023-04-11T00:30:50.164Z,93.10
2023-04-11T00:31:52.797Z,92.80
2023-04-11T00:32:55.877Z,93.30
2023-04-11T00:33:58.224Z,93.50
2023-04-11T00:35:01.794Z,93.30
2023-04-11T00:36:04.006Z,93.40
2023-04-11T00:37:07.055Z,93.20
2023-04-11T00:38:09.042Z,93.10
2023-04-11T00:39:13.132Z,93.30
2023-04-11T00:40:18.672Z,93.50
2023-04-11T00:41:21.698Z,93.20
2023-04-11T00:42:23.638Z,93.50
2023-04-11T00:43:26.674Z,93.80
2023-04-11T00:44:28.579Z,93.90
2023-04-11T00:45:31.783Z,94.10
2023-04-11T00:46:35.924Z,93.90
2023-04-11T00:47:39.193Z,93.90
2023-04-11T00:48:41.657Z,93.70
2023-04-11T00:49:44.822Z,93.70
2023-04-11T00:50:46.834Z,93.70
2023-04-11T00:51:49.786Z,94.10
2023-04-11T00:52:53.335Z,94.20
2023-04-11T00:53:56.384Z,94.10
2023-04-11T00:54:58.553Z,93.90
2023-04-11T00:56:02.924Z,93.90
2023-04-11T00:57:07.026Z,94.20
2023-04-11T00:58:10.008Z,94.10
2023-04-11T00:59:12.422Z,94.40
2023-04-11T01:00:16.227Z,93.90
2023-04-11T01:01:19.943Z,94.00
2023-04-11T01:02:24.870Z,93.90
2023-04-11T01:03:28.259Z,94.00
2023-04-11T01:04:30.622Z,94.40
2023-04-11T01:05:35.267Z,94.60
2023-04-11T01:06:37.696Z,95.10
2023-04-11T01:07:45.660Z,95.10
2023-04-11T01:08:48.722Z,94.40
2023-04-11T01:09:52.704Z,94.50
2023-04-11T01:12:00.053Z,94.70
2023-04-11T01:13:03.234Z,94.80
2023-04-11T01:14:05.882Z,94.60
2023-04-11T01:15:09.414Z,94.60
2023-04-11T01:16:11.747Z,94.90
2023-04-11T01:17:14.864Z,95.00
2023-04-11T01:18:16.800Z,94.90
2023-04-11T01:19:21.866Z,94.40
2023-04-11T01:20:24.277Z,94.70
2023-04-11T01:21:28.685Z,94.70
2023-04-11T01:22:30.811Z,95.30
2023-04-11T01:23:35.467Z,94.90
2023-04-11T01:24:37.480Z,94.70
2023-04-11T01:25:40.488Z,95.40
2023-04-11T01:26:42.875Z,95.60
2023-04-11T01:27:45.943Z,95.30
2023-04-11T01:28:47.904Z,95.00
2023-04-11T01:29:51.067Z,95.20
2023-04-11T01:30:53.136Z,95.40
2023-04-11T01:31:56.143Z,95.70
2023-04-11T01:32:58.312Z,95.70
2023-04-11T01:34:02.168Z,95.70
2023-04-11T01:35:05.772Z,95.70
2023-04-11T01:36:09.938Z,96.10
2023-04-11T01:37:11.948Z,96.10
2023-04-11T01:38:14.940Z,96.50
2023-04-11T01:39:18.244Z,96.30
2023-04-11T01:40:22.650Z,96.20
2023-04-11T01:41:26.495Z,96.30
2023-04-11T01:42:30.493Z,96.60
2023-04-11T01:43:32.588Z,97.20
2023-04-11T01:44:37.612Z,97.30
2023-04-11T01:45:40.807Z,97.00
2023-04-11T01:46:44.286Z,97.40
2023-04-11T01:47:47.423Z,98.60
2023-04-11T01:48:51.699Z,99.90
2023-04-11T01:49:54.092Z,99.90
2023-04-11T01:50:57.198Z,99.90
2023-04-11T01:51:59.140Z,99.90
2023-04-11T01:53:02.161Z,99.90
2023-04-11T01:54:04.697Z,99.90
2023-04-11T01:55:09.795Z,99.90
2023-04-11T01:56:12.685Z,99.90
2023-04-11T01:57:15.671Z,99.90
2023-04-11T01:58:17.700Z,99.90
2023-04-11T01:59:20.815Z,99.90
2023-04-11T02:00:23.023Z,99.90
2023-04-11T02:01:26.543Z,99.90
2023-04-11T02:02:28.717Z,99.90
2023-04-11T02:03:31.940Z,99.90
2023-04-11T02:04:34.071Z,99.90
2023-04-11T02:05:37.022Z,99.90
2023-04-11T02:06:38.988Z,99.90
2023-04-11T02:07:41.914Z,99.90
2023-04-11T02:08:44.262Z,99.90
2023-04-11T02:09:47.209Z,99.90
2023-04-11T02:10:50.568Z,99.90
2023-04-11T02:11:53.488Z,99.90
2023-04-11T02:12:55.401Z,99.90
2023-04-11T02:13:58.335Z,99.90
2023-04-11T02:15:00.407Z,99.90
2023-04-11T02:16:08.987Z,99.90
2023-04-11T02:17:11.565Z,99.90
2023-04-11T02:18:14.540Z,99.90
2023-04-11T02:19:16.486Z,99.90
2023-04-11T02:20:21.395Z,99.90
2023-04-11T02:21:23.483Z,99.90
2023-04-11T02:22:26.436Z,99.90
2023-04-11T02:23:28.388Z,99.90
2023-04-11T02:24:31.560Z,99.90
2023-04-11T02:25:33.660Z,99.90
2023-04-11T02:26:38.191Z,99.90
2023-04-11T02:27:40.206Z,99.90
2023-04-11T02:28:43.143Z,99.90
2023-04-11T02:29:45.637Z,99.90
2023-04-11T02:30:48.635Z,99.90
2023-04-11T02:31:50.875Z,99.90
2023-04-11T02:32:53.874Z,99.90
2023-04-11T02:33:55.894Z,99.90
2023-04-11T02:34:58.892Z,99.90
2023-04-11T02:36:01.140Z,99.90
2023-04-11T02:37:04.229Z,99.90
2023-04-11T02:38:06.178Z,99.90
2023-04-11T02:39:09.142Z,99.90
2023-04-11T02:40:11.683Z,99.90
2023-04-11T02:41:14.624Z,99.90
2023-04-11T02:42:17.929Z,99.90
2023-04-11T02:43:20.936Z,99.90
2023-04-11T02:44:22.928Z,99.90
2023-04-11T02:45:25.937Z,99.90
2023-04-11T02:46:27.932Z,99.90
2023-04-11T02:47:30.886Z,99.90
2023-04-11T02:48:32.980Z,99.90
2023-04-11T02:49:35.917Z,99.90
2023-04-11T02:50:40.839Z,99.90
2023-04-11T02:51:43.892Z,99.90
2023-04-11T02:52:47.950Z,99.90
2023-04-11T02:53:52.190Z,99.90
2023-04-11T02:54:54.106Z,99.90
2023-04-11T02:55:57.092Z,99.90
2023-04-11T02:56:59.121Z,99.90
2023-04-11T02:58:03.470Z,99.90
2023-04-11T02:59:06.436Z,99.90
2023-04-11T03:00:10.583Z,99.90
2023-04-11T03:01:14.752Z,99.90
2023-04-11T03:02:17.957Z,99.90
2023-04-11T03:03:20.266Z,99.90
2023-04-11T03:04:23.456Z,99.90
2023-04-11T03:05:25.431Z,99.90
2023-04-11T03:06:29.175Z,99.90
2023-04-11T03:07:31.545Z,99.90
2023-04-11T03:08:35.826Z,99.90
2023-04-11T03:09:37.826Z,99.90
2023-04-11T03:10:40.798Z,99.90
2023-04-11T03:11:42.779Z,99.90
2023-04-11T03:12:45.703Z,99.90
2023-04-11T03:13:48.995Z,99.90
2023-04-11T03:14:51.943Z,99.90
2023-04-11T03:15:53.908Z,99.90
2023-04-11T03:16:56.911Z,99.90
2023-04-11T03:17:58.886Z,99.90
2023-04-11T03:19:01.860Z,99.90
2023-04-11T03:20:08.388Z,99.90
2023-04-11T03:21:11.382Z,99.90
2023-04-11T03:22:14.440Z,99.90
2023-04-11T03:23:16.546Z,99.90
2023-04-11T03:24:19.578Z,99.90
2023-04-11T03:25:22.483Z,99.90
2023-04-11T03:26:27.071Z,99.90
2023-04-11T03:27:29.060Z,99.90
2023-04-11T03:28:32.001Z,99.90
2023-04-11T03:29:35.329Z,99.90
2023-04-11T03:30:42.480Z,99.90
2023-04-11T03:31:44.508Z,99.90
2023-04-11T03:32:47.541Z,99.90
2023-04-11T03:33:49.516Z,99.90
2023-04-11T03:34:52.618Z,99.90
2023-04-11T03:35:54.713Z,99.90
2023-04-11T03:36:57.984Z,99.90
2023-04-11T03:37:59.934Z,99.90
2023-04-11T03:39:02.843Z,99.90
2023-04-11T03:40:08.250Z,99.90
2023-04-11T03:41:11.284Z,99.90
2023-04-11T03:42:13.326Z,99.90
2023-04-11T03:43:16.805Z,99.90
2023-04-11T03:44:18.734Z,99.90
2023-04-11T03:45:23.071Z,99.90
2023-04-11T03:46:25.175Z,99.90
2023-04-11T03:47:28.267Z,99.90
2023-04-11T03:48:31.031Z,99.90
2023-04-11T03:49:34.009Z,99.90
2023-04-11T03:50:36.067Z,99.90
2023-04-11T03:51:39.081Z,99.90
2023-04-11T03:52:41.011Z,99.90
2023-04-11T03:53:43.970Z,99.90
2023-04-11T03:54:47.665Z,99.90
2023-04-11T03:55:52.729Z,99.90
2023-04-11T03:56:55.983Z,99.90
2023-04-11T03:57:57.949Z,99.90
2023-04-11T03:59:01.550Z,99.90
2023-04-11T04:00:05.852Z,99.90
2023-04-11T04:01:10.211Z,99.90
2023-04-11T04:02:12.323Z,99.90
2023-04-11T04:03:15.413Z,99.90
2023-04-11T04:04:17.597Z,99.90
2023-04-11T04:05:20.661Z,99.90
2023-04-11T04:06:22.686Z,99.90
2023-04-11T04:07:25.769Z,99.90
2023-04-11T04:08:27.731Z,99.90
2023-04-11T04:09:30.631Z,99.90
2023-04-11T04:10:32.687Z,99.90
2023-04-11T04:11:35.674Z,99.90
2023-04-11T04:12:37.644Z,99.90
2023-04-11T04:13:40.571Z,99.90
2023-04-11T04:14:42.542Z,99.90
2023-04-11T04:15:45.603Z,99.90
2023-04-11T04:16:48.891Z,99.90
2023-04-11T04:17:52.392Z,99.90
2023-04-11T04:18:54.315Z,99.90
2023-04-11T04:19:57.336Z,99.90
2023-04-11T04:20:59.423Z,99.90
2023-04-11T04:22:02.402Z,99.90
2023-04-11T04:23:06.029Z,99.90
2023-04-11T04:24:09.096Z,99.90
2023-04-11T04:25:12.658Z,99.90
2023-04-11T04:26:16.982Z,99.90
2023-04-11T04:27:18.924Z,99.90
2023-04-11T04:28:22.508Z,99.90
2023-04-11T04:29:29.374Z,99.90
2023-04-11T04:30:32.763Z,99.90
2023-04-11T04:31:35.028Z,99.90
2023-04-11T04:32:41.154Z,99.90
2023-04-11T04:33:43.343Z,99.90
2023-04-11T04:34:49.668Z,99.90
2023-04-11T04:35:58.107Z,99.90
2023-04-11T04:37:02.047Z,99.90
2023-04-11T04:38:06.519Z,99.90
2023-04-11T04:39:09.881Z,99.90
2023-04-11T04:40:14.074Z,99.90
2023-04-11T04:41:17.078Z,99.90
2023-04-11T04:42:18.996Z,99.90
2023-04-11T04:43:24.053Z,99.90
2023-04-11T04:44:26.415Z,99.90
2023-04-11T04:45:29.474Z,99.90
2023-04-11T04:46:36.701Z,99.90
2023-04-11T04:47:41.077Z,99.90
2023-04-11T04:48:42.994Z,99.90
2023-04-11T04:49:46.480Z,99.90
2023-04-11T04:50:48.504Z,99.90
2023-04-11T04:51:51.522Z,99.90
2023-04-11T04:52:53.483Z,99.90
2023-04-11T04:53:57.790Z,99.90
2023-04-11T04:55:01.619Z,99.90
2023-04-11T04:56:03.903Z,99.90
2023-04-11T04:57:07.065Z,99.90
2023-04-11T04:58:09.008Z,99.90
2023-04-11T04:59:14.675Z,99.90
2023-04-11T05:00:17.102Z,99.90
2023-04-11T05:01:20.581Z,99.90
2023-04-11T05:02:23.094Z,99.90
2023-04-11T05:03:27.917Z,99.90
2023-04-11T05:04:30.495Z,99.90
2023-04-11T05:05:33.537Z,99.90
2023-04-11T05:06:35.804Z,99.90
2023-04-11T05:07:38.771Z,99.90
2023-04-11T05:08:40.788Z,99.90
2023-04-11T05:09:43.747Z,99.90
2023-04-11T05:10:45.673Z,99.90
2023-04-11T05:11:50.352Z,99.90
2023-04-11T05:12:53.496Z,99.90
2023-04-11T05:13:56.946Z,99.90
2023-04-11T05:14:59.059Z,99.90
2023-04-11T05:16:02.389Z,99.90
2023-04-11T05:18:07.259Z,99.90
2023-04-11T05:19:10.662Z,99.90
2023-04-11T05:20:15.621Z,99.90
2023-04-11T05:21:17.678Z,99.90
2023-04-11T05:22:20.583Z,99.90
2023-04-11T05:23:22.558Z,99.90
2023-04-11T05:24:25.612Z,99.90
2023-04-11T05:25:27.771Z,99.90
2023-04-11T05:26:31.690Z,99.90
2023-04-11T05:27:33.581Z,99.90
2023-04-11T05:28:36.939Z,99.90
2023-04-11T05:29:38.851Z,99.90
2023-04-11T05:30:41.818Z,99.90
2023-04-11T05:31:44.781Z,99.90
2023-04-11T05:32:47.778Z,99.90
2023-04-11T05:33:50.782Z,99.90
2023-04-11T05:34:59.290Z,99.90
2023-04-11T05:36:02.536Z,99.90
2023-04-11T05:37:04.440Z,99.90
2023-04-11T05:38:07.383Z,99.90
2023-04-11T05:39:09.412Z,99.90
2023-04-11T05:40:12.788Z,99.90
2023-04-11T05:41:14.879Z,99.90
2023-04-11T05:42:18.572Z,99.90
2023-04-11T05:43:20.494Z,99.90
2023-04-11T05:44:23.465Z,99.90
2023-04-11T05:45:25.569Z,99.90
2023-04-11T05:46:29.428Z,99.90
2023-04-11T05:47:32.134Z,99.90
2023-04-11T05:48:35.290Z,99.90
2023-04-11T05:49:38.228Z,99.90
2023-04-11T05:50:41.662Z,99.90
2023-04-11T05:51:44.610Z,99.90
2023-04-11T05:52:46.611Z,99.90
2023-04-11T05:53:49.583Z,99.90
2023-04-11T05:54:51.536Z,99.90
2023-04-11T05:55:54.698Z,99.90
2023-04-11T05:56:56.928Z,99.90
2023-04-11T05:58:00.125Z,99.90
2023-04-11T05:59:02.158Z,99.90
2023-04-11T06:00:12.845Z,99.90
2023-04-11T06:01:18.389Z,99.90
2023-04-11T06:02:20.521Z,99.90
2023-04-11T06:03:23.656Z,99.90
2023-04-11T06:04:26.118Z,99.90
2023-04-11T06:05:31.410Z,99.90
2023-04-11T06:06:36.059Z,99.90
2023-04-11T06:07:39.304Z,99.90
2023-04-11T06:08:42.789Z,99.90
2023-04-11T06:09:44.783Z,99.90
2023-04-11T06:10:47.810Z,99.90
2023-04-11T06:11:49.772Z,99.90
2023-04-11T06:12:52.827Z,99.90
2023-04-11T06:13:54.915Z,99.90
2023-04-11T06:14:58.068Z,99.90
2023-04-11T06:16:00.073Z,99.90
2023-04-11T06:17:03.218Z,99.90
2023-04-11T06:18:06.285Z,99.90
2023-04-11T06:19:08.435Z,99.90
2023-04-11T06:20:11.662Z,99.90
2023-04-11T06:21:14.620Z,99.90
2023-04-11T06:22:17.945Z,99.90
2023-04-11T06:23:21.298Z,99.90
2023-04-11T06:24:36.821Z,99.90
2023-04-11T06:25:39.826Z,99.90
2023-04-11T06:26:41.764Z,99.90
2023-04-11T06:27:44.699Z,99.90
2023-04-11T06:28:46.636Z,99.90
2023-04-11T06:29:49.625Z,99.90
2023-04-11T06:30:52.595Z,99.90
2023-04-11T06:31:54.542Z,99.90
2023-04-11T06:32:58.992Z,99.90
2023-04-11T06:34:01.692Z,99.90
2023-04-11T06:35:04.949Z,99.90
2023-04-11T06:36:07.285Z,99.90
2023-04-11T06:37:10.605Z,99.90
2023-04-11T06:38:14.942Z,99.90
2023-04-11T06:39:17.240Z,99.90
2023-04-11T06:40:21.208Z,99.90
2023-04-11T06:41:25.241Z,99.90
2023-04-11T06:42:27.350Z,99.90
2023-04-11T06:43:31.978Z,99.90
2023-04-11T06:44:34.033Z,99.90
2023-04-11T06:45:37.039Z,99.90
2023-04-11T06:46:39.230Z,99.90
2023-04-11T06:47:42.260Z,99.90
2023-04-11T06:48:44.220Z,99.90
2023-04-11T06:49:47.183Z,99.90
2023-04-11T06:50:50.188Z,99.90
2023-04-11T06:51:52.151Z,99.90
2023-04-11T06:52:55.759Z,99.90
2023-04-11T06:53:59.224Z,99.90
2023-04-11T06:55:02.216Z,99.90
2023-04-11T06:56:04.585Z,99.90
2023-04-11T06:57:07.563Z,99.90
2023-04-11T06:58:09.943Z,99.90
2023-04-11T06:59:12.928Z,99.90
2023-04-11T07:00:17.032Z,99.90
2023-04-11T07:01:20.630Z,99.90
2023-04-11T07:02:25.154Z,99.90
2023-04-11T07:03:27.595Z,99.90
2023-04-11T07:04:30.983Z,99.90
2023-04-11T07:05:33.129Z,99.90
2023-04-11T07:06:36.617Z,99.90
2023-04-11T07:07:39.732Z,99.90
2023-04-11T07:08:42.321Z,99.90
2023-04-11T07:09:47.591Z,99.90
2023-04-11T07:10:50.761Z,99.90
2023-04-11T07:11:52.766Z,99.90
2023-04-11T07:12:56.378Z,99.90
2023-04-11T07:13:59.643Z,99.90
2023-04-11T07:15:03.646Z,99.90
2023-04-11T07:16:06.436Z,99.90
2023-04-11T07:17:09.334Z,99.90
2023-04-11T07:18:11.308Z,99.90
2023-04-11T07:19:14.432Z,99.90
2023-04-11T07:20:16.429Z,99.90
2023-04-11T07:21:19.496Z,99.90
2023-04-11T07:22:22.420Z,99.90
2023-04-11T07:23:25.374Z,99.90
2023-04-11T07:24:30.407Z,99.90
2023-04-11T07:25:34.867Z,99.90
2023-04-11T07:26:38.794Z,99.90
2023-04-11T07:27:43.545Z,99.90
2023-04-11T07:28:46.100Z,99.90
2023-04-11T07:29:49.084Z,99.90
2023-04-11T07:30:52.102Z,99.90
2023-04-11T07:31:55.490Z,99.90
2023-04-11T07:32:57.654Z,99.90
2023-04-11T07:34:00.697Z,99.90
2023-04-11T07:35:03.663Z,99.90
2023-04-11T07:36:06.853Z,99.90
2023-04-11T07:37:09.835Z,99.90
2023-04-11T07:38:12.490Z,99.90
2023-04-11T07:39:15.937Z,99.90
2023-04-11T07:40:18.026Z,99.90
2023-04-11T07:41:22.266Z,99.90
2023-04-11T07:42:24.224Z,99.90
2023-04-11T07:43:28.274Z,99.90
2023-04-11T07:44:31.224Z,99.90
2023-04-11T07:45:34.172Z,99.90
2023-04-11T07:46:37.241Z,99.90
2023-04-11T07:47:39.190Z,99.90
2023-04-11T07:48:43.394Z,99.90
2023-04-11T07:49:45.408Z,99.90
2023-04-11T07:50:48.399Z,99.90
2023-04-11T07:51:51.385Z,99.90
2023-04-11T07:52:53.330Z,99.90
2023-04-11T07:53:57.678Z,99.90
2023-04-11T07:55:00.815Z,99.90
2023-04-11T07:56:02.912Z,99.90
2023-04-11T07:57:07.272Z,99.90
2023-04-11T07:58:09.329Z,99.90
2023-04-11T07:59:13.202Z,99.90
2023-04-11T08:00:20.639Z,99.90
2023-04-11T08:01:25.079Z,99.90
2023-04-11T08:02:27.263Z,99.90
2023-04-11T08:03:30.541Z,99.90
2023-04-11T08:04:33.489Z,99.90
2023-04-11T08:05:38.328Z,99.90
2023-04-11T08:06:41.425Z,99.90
2023-04-11T08:07:43.651Z,99.90
2023-04-11T08:08:47.776Z,99.90
2023-04-11T08:09:50.833Z,99.90
2023-04-11T08:10:53.738Z,99.90
2023-04-11T08:11:56.946Z,99.90
2023-04-11T08:13:01.389Z,99.90
2023-04-11T08:14:03.348Z,99.90
2023-04-11T08:15:07.024Z,99.90
2023-04-11T08:16:10.607Z,99.90
2023-04-11T08:17:27.154Z,99.90
2023-04-11T08:18:31.219Z,99.90
2023-04-11T08:19:34.133Z,99.90
2023-04-11T08:20:36.253Z,99.90
2023-04-11T08:21:39.312Z,99.90
2023-04-11T08:22:44.636Z,99.90
2023-04-11T08:23:47.922Z,99.90
2023-04-11T08:24:49.960Z,99.90
2023-04-11T08:25:54.002Z,99.90
2023-04-11T08:26:55.909Z,99.90
2023-04-11T08:27:58.856Z,99.90
2023-04-11T08:29:03.506Z,99.90
2023-04-11T08:30:08.697Z,99.90
2023-04-11T08:31:13.157Z,99.90
2023-04-11T08:32:15.695Z,99.90
2023-04-11T08:33:18.644Z,99.90
2023-04-11T08:34:21.623Z,99.90
2023-04-11T08:35:23.709Z,99.90
2023-04-11T08:36:27.350Z,99.90
2023-04-11T08:37:30.424Z,99.90
2023-04-11T08:38:33.324Z,99.90
2023-04-11T08:39:36.514Z,99.90
2023-04-11T08:40:39.431Z,99.90
2023-04-11T08:41:42.726Z,99.90
2023-04-11T08:42:45.829Z,99.90
2023-04-11T08:43:49.831Z,99.90
2023-04-11T08:44:57.687Z,99.90
2023-04-11T08:46:02.654Z,99.90
2023-04-11T08:47:05.825Z,99.90
2023-04-11T08:48:09.191Z,99.90
2023-04-11T08:49:12.520Z,99.90
2023-04-11T08:50:14.502Z,99.90
2023-04-11T08:51:22.839Z,99.90
2023-04-11T08:52:25.395Z,99.90
2023-04-11T08:53:30.130Z,99.90
2023-04-11T08:54:32.059Z,99.90
2023-04-11T08:55:35.346Z,99.90
2023-04-11T08:56:40.253Z,99.90
2023-04-11T08:57:43.346Z,99.90
2023-04-11T08:58:45.613Z,99.90
2023-04-11T08:59:51.137Z,99.90
2023-04-11T09:00:55.453Z,99.90
2023-04-11T09:02:07.037Z,99.90
2023-04-11T09:03:11.511Z,99.90
2023-04-11T09:04:13.617Z,99.90
2023-04-11T09:05:26.399Z,99.90
2023-04-11T09:06:30.735Z,99.90
2023-04-11T09:07:48.530Z,99.90
2023-04-11T09:08:51.476Z,99.90
2023-04-11T09:09:53.430Z,99.90
2023-04-11T09:11:02.442Z,99.90
2023-04-11T09:12:05.147Z,99.90
2023-04-11T09:13:22.502Z,99.90
2023-04-11T09:14:25.647Z,99.90
2023-04-11T09:15:30.048Z,99.90
2023-04-11T09:16:33.760Z,99.90
2023-04-11T09:17:42.970Z,99.90
2023-04-11T09:18:47.246Z,99.90
2023-04-11T09:19:49.582Z,99.90
2023-04-11T09:21:00.274Z,99.90
2023-04-11T09:22:06.141Z,99.90
2023-04-11T09:23:26.094Z,99.90
2023-04-11T09:24:31.095Z,99.90
2023-04-11T09:25:45.408Z,99.90
2023-04-11T09:26:47.316Z,99.90
2023-04-11T09:27:51.072Z,99.90
2023-04-11T09:28:53.782Z,99.90
2023-04-11T09:29:56.984Z,99.90
2023-04-11T09:30:58.939Z,99.90
2023-04-11T09:32:03.305Z,99.90
2023-04-11T09:33:21.754Z,99.90
2023-04-11T09:34:27.520Z,99.90
2023-04-11T09:35:30.481Z,99.90
2023-04-11T09:36:32.595Z,99.90
2023-04-11T09:37:47.765Z,99.90
2023-04-11T09:38:51.772Z,99.90
2023-04-11T09:39:59.177Z,99.90
2023-04-11T09:41:03.566Z,99.90
2023-04-11T09:42:24.384Z,99.90
2023-04-11T09:43:27.912Z,99.90
2023-04-11T09:44:37.447Z,99.90
2023-04-11T09:45:51.629Z,99.90
2023-04-11T09:47:00.820Z,99.90
2023-04-11T09:48:05.412Z,99.90
2023-04-11T09:50:14.881Z,99.90
2023-04-11T09:51:34.184Z,99.90
2023-04-11T09:52:41.095Z,99.90
2023-04-11T09:53:46.090Z,99.90
2023-04-11T09:54:50.764Z,99.90
2023-04-11T09:55:53.928Z,99.90
2023-04-11T09:56:59.476Z,99.90
2023-04-11T09:58:02.333Z,99.90
2023-04-11T09:59:05.671Z,99.90
2023-04-11T10:00:16.760Z,99.90
2023-04-11T10:01:20.906Z,99.90
2023-04-11T10:02:23.007Z,99.90
2023-04-11T10:03:27.688Z,99.90
2023-04-11T10:04:31.013Z,99.90
2023-04-11T10:05:33.486Z,99.90
2023-04-11T10:06:42.417Z,99.90
2023-04-11T10:07:52.360Z,99.90
2023-04-11T10:08:55.397Z,99.90
2023-04-11T10:09:58.613Z,99.90
2023-04-11T10:11:01.485Z,99.90
2023-04-11T10:12:04.564Z,99.90
2023-04-11T10:13:41.256Z,99.90
2023-04-11T10:14:47.004Z,99.90
2023-04-11T10:16:09.499Z,99.90
2023-04-11T10:17:14.093Z,99.90
2023-04-11T10:18:17.211Z,99.90
2023-04-11T10:19:27.189Z,99.90
2023-04-11T10:20:47.987Z,99.90
2023-04-11T10:21:49.980Z,99.90
2023-04-11T10:23:02.103Z,99.90
2023-04-11T10:24:09.972Z,99.90
2023-04-11T10:25:19.908Z,99.90
2023-04-11T10:26:43.003Z,99.90
2023-04-11T10:27:50.254Z,99.90
2023-04-11T10:28:53.246Z,99.90
2023-04-11T10:29:56.239Z,99.90
2023-04-11T10:31:17.672Z,99.90
2023-04-11T10:32:22.185Z,99.90
2023-04-11T10:33:26.880Z,99.90
2023-04-11T10:34:31.903Z,99.90
2023-04-11T10:35:34.910Z,99.90
2023-04-11T10:37:03.527Z,99.90
2023-04-11T10:38:47.067Z,99.90
2023-04-11T10:40:09.688Z,99.90
2023-04-11T10:41:31.358Z,99.90
2023-04-11T10:42:35.441Z,99.90
2023-04-11T10:43:39.281Z,99.90
2023-04-11T10:44:41.274Z,99.90
2023-04-11T10:45:44.929Z,99.90
2023-04-11T10:46:51.884Z,99.90
2023-04-11T10:48:07.782Z,99.90
2023-04-11T10:49:10.874Z,99.90
2023-04-11T10:50:45.786Z,99.90
2023-04-11T10:51:47.806Z,99.90
2023-04-11T10:52:50.867Z,99.90
2023-04-11T10:53:53.048Z,99.90
2023-04-11T10:54:56.074Z,99.90
2023-04-11T10:55:58.076Z,99.90
2023-04-11T10:57:01.009Z,99.90
2023-04-11T10:58:07.983Z,99.90
2023-04-11T10:59:56.439Z,99.90
2023-04-11T11:01:26.029Z,99.90
2023-04-11T11:02:39.588Z,99.90
2023-04-11T11:03:53.385Z,99.90
2023-04-11T11:04:55.483Z,99.90
2023-04-11T11:06:01.564Z,99.90
2023-04-11T11:07:06.118Z,99.90
2023-04-11T11:08:10.579Z,99.90
2023-04-11T11:09:23.195Z,99.90
2023-04-11T11:10:43.540Z,99.90
2023-04-11T11:11:47.076Z,99.90
2023-04-11T11:12:53.645Z,99.90
2023-04-11T11:13:57.086Z,99.90
2023-04-11T11:14:59.145Z,99.90
2023-04-11T11:16:02.248Z,99.90
2023-04-11T11:17:04.751Z,99.90
2023-04-11T11:18:09.746Z,99.90
2023-04-11T11:19:15.418Z,99.90
2023-04-11T11:20:20.097Z,99.90
2023-04-11T11:21:28.842Z,99.90
2023-04-11T11:22:30.970Z,99.90
2023-04-11T11:23:36.108Z,99.90
2023-04-11T11:24:38.487Z,99.90
2023-04-11T11:25:41.957Z,99.90
2023-04-11T11:26:44.570Z,99.90
2023-04-11T11:27:47.509Z,99.90
2023-04-11T11:28:50.607Z,99.90
2023-04-11T11:29:53.918Z,99.90
2023-04-11T11:30:57.248Z,99.90
2023-04-11T11:32:03.553Z,99.90
2023-04-11T11:33:17.893Z,99.90
2023-04-11T11:34:28.819Z,99.90
2023-04-11T11:35:30.954Z,99.90
2023-04-11T11:36:40.602Z,99.90
2023-04-11T11:37:42.906Z,99.90
2023-04-11T11:38:45.911Z,99.90
2023-04-11T11:39:48.314Z,99.90
2023-04-11T11:40:51.807Z,99.90
2023-04-11T11:41:53.848Z,99.90
2023-04-11T11:42:57.028Z,99.90
2023-04-11T11:44:01.292Z,99.90
2023-04-11T11:45:14.887Z,99.90
2023-04-11T11:46:17.891Z,99.90
2023-04-11T11:47:19.959Z,99.90
2023-04-11T11:48:24.984Z,99.90
2023-04-11T11:49:27.928Z,99.90
2023-04-11T11:50:32.035Z,99.90
2023-04-11T11:51:43.059Z,99.90
2023-04-11T11:52:45.077Z,99.90
2023-04-11T11:54:03.563Z,99.90
2023-04-11T11:55:11.459Z,99.90
2023-04-11T11:56:16.281Z,99.90
2023-04-11T11:57:22.854Z,99.90
2023-04-11T11:58:26.325Z,99.90
2023-04-11T11:59:28.274Z,99.90
2023-04-11T12:00:33.196Z,99.90
2023-04-11T12:01:37.313Z,99.90
2023-04-11T12:02:40.781Z,99.90
2023-04-11T12:03:44.112Z,99.90
2023-04-11T12:04:46.786Z,99.90
2023-04-11T12:05:51.448Z,99.90
2023-04-11T12:06:55.288Z,99.90
2023-04-11T12:07:59.857Z,99.90
2023-04-11T12:09:04.444Z,99.90
2023-04-11T12:10:08.178Z,99.90
2023-04-11T12:11:15.985Z,99.90
2023-04-11T12:12:18.918Z,99.90
2023-04-11T12:13:23.685Z,99.90
2023-04-11T12:14:25.707Z,99.90
2023-04-11T12:15:28.635Z,99.90
2023-04-11T12:16:31.699Z,99.90
2023-04-11T12:17:36.319Z,99.90
2023-04-11T12:18:43.033Z,99.90
2023-04-11T12:19:45.024Z,99.90
2023-04-11T12:20:47.988Z,99.90
2023-04-11T12:21:51.501Z,99.90
2023-04-11T12:22:55.398Z,99.60
2023-04-11T12:23:58.886Z,99.90
2023-04-11T12:25:05.836Z,99.90
2023-04-11T12:26:08.900Z,99.80
2023-04-11T12:27:12.621Z,99.60
2023-04-11T12:28:15.793Z,99.60
2023-04-11T12:29:18.745Z,97.70
2023-04-11T12:30:20.688Z,98.40
2023-04-11T12:31:25.111Z,98.30
2023-04-11T12:32:27.562Z,98.30
2023-04-11T12:33:30.583Z,98.90
2023-04-11T12:34:32.500Z,97.80
2023-04-11T12:35:35.669Z,98.30
2023-04-11T12:36:37.594Z,98.40
2023-04-11T12:37:41.170Z,97.50
2023-04-11T12:38:45.562Z,97.90
2023-04-11T12:39:47.684Z,98.20
2023-04-11T12:40:56.845Z,98.50
2023-04-11T12:42:06.466Z,96.80
2023-04-11T12:43:09.411Z,97.00
2023-04-11T12:44:12.308Z,96.90
2023-04-11T12:45:14.882Z,97.30
2023-04-11T12:46:18.775Z,96.90
2023-04-11T12:47:20.869Z,98.10
2023-04-11T12:48:23.834Z,98.40
2023-04-11T12:49:27.537Z,97.90
2023-04-11T12:50:30.583Z,97.90
2023-04-11T12:51:33.553Z,96.20
2023-04-11T12:52:36.665Z,96.00
2023-04-11T12:53:39.617Z,95.80
2023-04-11T12:54:42.996Z,95.20
2023-04-11T12:55:46.027Z,94.40
2023-04-11T12:56:48.080Z,95.30
2023-04-11T12:57:51.226Z,94.70
2023-04-11T12:58:53.195Z,93.10
2023-04-11T12:59:56.150Z,93.00
2023-04-11T13:00:59.540Z,93.40
2023-04-11T13:02:02.108Z,93.00
2023-04-11T13:03:06.030Z,92.70
2023-04-11T13:04:08.353Z,92.10
2023-04-11T13:05:14.232Z,90.40
2023-04-11T13:06:17.001Z,91.40
2023-04-11T13:07:19.940Z,91.80
2023-04-11T13:08:23.224Z,91.60
2023-04-11T13:09:25.258Z,89.20
2023-04-11T13:10:29.621Z,89.40
2023-04-11T13:11:31.821Z,86.00
2023-04-11T13:12:39.741Z,88.20
2023-04-11T13:13:41.746Z,89.00
2023-04-11T13:14:44.695Z,88.90
2023-04-11T13:15:47.796Z,87.70
2023-04-11T13:16:49.957Z,87.70
2023-04-11T13:17:53.088Z,86.70
2023-04-11T13:18:55.384Z,89.10
2023-04-11T13:19:58.468Z,88.30
2023-04-11T13:21:00.411Z,88.60
2023-04-11T13:22:03.928Z,89.50
2023-04-11T13:23:06.967Z,90.00
2023-04-11T13:24:10.053Z,90.10
2023-04-11T13:25:13.230Z,87.50
2023-04-11T13:26:17.716Z,86.60
2023-04-11T13:27:22.063Z,87.00
2023-04-11T13:28:25.092Z,85.10
2023-04-11T13:29:27.139Z,84.50
2023-04-11T13:30:30.095Z,80.40
2023-04-11T13:31:32.143Z,87.30
2023-04-11T13:32:35.110Z,86.10
2023-04-11T13:33:37.123Z,81.50
2023-04-11T13:34:40.057Z,85.30
2023-04-11T13:36:46.829Z,81.50
2023-04-11T13:37:49.762Z,83.30
2023-04-11T13:38:53.982Z,84.90
2023-04-11T13:39:55.981Z,86.60
2023-04-11T13:40:58.902Z,84.20
2023-04-11T13:42:03.362Z,84.30
2023-04-11T13:43:06.395Z,85.40
2023-04-11T13:44:08.425Z,87.70
2023-04-11T13:45:12.157Z,88.20
2023-04-11T13:46:16.144Z,89.70
2023-04-11T13:47:19.085Z,91.00
2023-04-11T13:48:21.002Z,91.70
2023-04-11T13:49:24.015Z,92.20
2023-04-11T13:50:26.026Z,92.20